Time;durP1;ratioP1;P1;durP2;ratioP2;P2;SDS_P1;SDS_P2;PMS_P1;PMS_P2;Temp;Humidity;BMP_temperature;BMP_pressure;BME280_temperature;BME280_humidity;BME280_pressure;Samples;Min_cycle;Max_cycle;Signal;HPM_P1;HPM_P2
2022/06/07 00:00:09;;;;;;;;;;;;;;;24.68;100.00;97815.88;5041129;28;19954;-62
2022/06/07 00:02:35;;;;;;;;;;;;;;;24.58;100.00;97809.03;5040193;28;19952;-62
2022/06/07 00:05:02;;;;;;;;;;;;;;;24.39;100.00;97803.53;5041479;28;19933;-62
2022/06/07 00:07:29;;;;;;;;;;;;;;;24.50;100.00;97803.78;5043645;28;20048;-62
2022/06/07 00:09:56;;;;;;;;;;;;;;;24.48;100.00;97800.63;5042160;28;19925;-62
2022/06/07 00:12:23;;;;;;;;;;;;;;;24.51;100.00;97797.19;5040112;28;19925;-62
2022/06/07 00:14:49;;;;;;;;;;;;;;;24.41;100.00;97795.00;5040704;28;20331;-62
2022/06/07 00:17:17;;;;;;;;;;;;;;;24.45;100.00;97799.38;5043472;28;19925;-62
2022/06/07 00:19:43;;;;;;;;;;;;;;;24.48;100.00;97797.91;5043643;28;19925;-62
2022/06/07 00:22:10;;;;;;;;;;;;;;;24.49;100.00;97803.00;5032210;28;19926;-63
2022/06/07 00:24:37;;;;;;;;;;;;;;;24.50;100.00;97804.59;5031931;28;19922;-62
2022/06/07 00:27:03;;;;;;;;;;;;;;;24.28;100.00;97796.25;5031772;28;19921;-62
2022/06/07 00:29:30;;;;;;;;;;;;;;;24.32;100.00;97797.94;5031479;28;19993;-62
2022/06/07 00:31:58;;;;;;;;;;;;;;;24.24;100.00;97796.16;5031559;28;19984;-62
2022/06/07 00:34:26;;;;;;;;;;;;;;;24.22;100.00;97793.00;5031610;28;19952;-61
2022/06/07 00:36:52;;;;;;;;;;;;;;;24.24;100.00;97790.72;5031406;28;19925;-63
2022/06/07 00:39:19;;;;;;;;;;;;;;;24.40;100.00;97788.75;5031423;28;19929;-63
2022/06/07 00:41:45;;;;;;;;;;;;;;;24.38;100.00;97782.88;5031361;28;19956;-63
2022/06/07 00:44:29;;;;;;;;;;;;;;;24.35;100.00;97778.13;5035457;28;20501;-63
2022/06/07 00:46:58;;;;;;;;;;;;;;;24.39;100.00;97778.97;5041639;28;19971;-63
2022/06/07 00:49:27;;;;;;;;;;;;;;;24.24;100.00;97785.25;5039692;28;19931;-62
2022/06/07 00:51:53;;;;;;;;;;;;;;;24.21;100.00;97775.03;5040841;28;19925;-62
2022/06/07 00:54:20;;;;;;;;;;;;;;;24.20;100.00;97778.94;5042881;28;19925;-63
2022/06/07 00:56:47;;;;;;;;;;;;;;;24.16;100.00;97773.41;5042340;28;19921;-62
2022/06/07 00:59:13;;;;;;;;;;;;;;;24.19;100.00;97771.91;5039194;28;19989;-62
2022/06/07 01:01:40;;;;;;;;;;;;;;;24.16;100.00;97767.16;5039042;28;19926;-62
2022/06/07 01:04:07;;;;;;;;;;;;;;;24.17;100.00;97764.03;5042144;28;19932;-62
2022/06/07 01:12:02;;;;;;;;;;;;;;;24.04;100.00;97775.41;5039217;28;19960;-63
2022/06/07 01:14:29;;;;;;;;;;;;;;;23.99;100.00;97778.38;5039173;28;19935;-63
2022/06/07 01:16:56;;;;;;;;;;;;;;;23.85;100.00;97773.41;5040546;28;19960;-63
2022/06/07 01:19:22;;;;;;;;;;;;;;;23.94;100.00;97773.22;5042347;28;20024;-63
2022/06/07 01:21:50;;;;;;;;;;;;;;;23.89;100.00;97779.72;5041502;28;19936;-63
2022/06/07 01:24:17;;;;;;;;;;;;;;;23.81;100.00;97771.72;5038628;28;19976;-63
2022/06/07 01:26:43;;;;;;;;;;;;;;;23.84;100.00;97784.66;5038669;28;19929;-63
2022/06/07 01:29:11;;;;;;;;;;;;;;;23.88;100.00;97789.06;5037602;28;20621;-63
2022/06/07 01:31:37;;;;;;;;;;;;;;;23.86;100.00;97793.28;5038610;28;19996;-63
2022/06/07 01:34:04;;;;;;;;;;;;;;;23.77;100.00;97809.78;5041055;28;19926;-63
2022/06/07 01:36:31;;;;;;;;;;;;;;;23.85;100.00;97811.56;5041751;28;20004;-63
2022/06/07 01:41:55;;;;;;;;;;;;;;;23.64;100.00;97814.53;5038250;28;19933;-63
2022/06/07 01:44:21;;;;;;;;;;;;;;;23.65;100.00;97824.31;5034917;28;19956;-62
2022/06/07 01:46:48;;;;;;;;;;;;;;;23.76;100.00;97831.97;5041003;28;19932;-62
2022/06/07 01:49:14;;;;;;;;;;;;;;;23.71;100.00;97837.69;5038060;28;20009;-62
2022/06/07 01:51:41;;;;;;;;;;;;;;;23.43;100.00;97833.06;5036814;28;19921;-62
2022/06/07 01:54:09;;;;;;;;;;;;;;;23.47;100.00;97833.16;5041082;28;19929;-63
2022/06/07 01:56:35;;;;;;;;;;;;;;;23.57;100.00;97829.94;5041356;28;20493;-62
2022/06/07 01:59:02;;;;;;;;;;;;;;;23.66;100.00;97825.09;5038799;28;20006;-62
2022/06/07 02:01:29;;;;;;;;;;;;;;;23.51;100.00;97823.16;5037792;28;19929;-62
2022/06/07 02:03:55;;;;;;;;;;;;;;;23.50;100.00;97814.19;5039220;28;19921;-62
2022/06/07 02:06:22;;;;;;;;;;;;;;;23.35;100.00;97816.84;5041081;28;20009;-62
2022/06/07 02:08:49;;;;;;;;;;;;;;;23.14;100.00;97811.59;5039383;28;19925;-62
2022/06/07 02:11:17;;;;;;;;;;;;;;;23.34;100.00;97802.41;5037974;28;19922;-62
2022/06/07 02:13:44;;;;;;;;;;;;;;;23.35;100.00;97797.75;5038172;28;19932;-64
2022/06/07 02:16:11;;;;;;;;;;;;;;;23.33;100.00;97800.84;5036806;28;19922;-63
2022/06/07 02:18:38;;;;;;;;;;;;;;;23.28;100.00;97797.56;5037796;28;19921;-63
2022/06/07 02:21:05;;;;;;;;;;;;;;;23.50;100.00;97794.31;5040518;28;19933;-62
2022/06/07 02:23:33;;;;;;;;;;;;;;;23.51;100.00;97793.16;5041120;28;19921;-62
2022/06/07 02:26:00;;;;;;;;;;;;;;;23.56;100.00;97788.25;5039193;28;20074;-62
2022/06/07 02:28:30;;;;;;;;;;;;;;;23.62;100.00;97784.13;5041055;28;20341;-63
2022/06/07 02:30:58;;;;;;;;;;;;;;;23.67;100.00;97790.47;5043842;28;19929;-63
2022/06/07 02:33:24;;;;;;;;;;;;;;;23.64;100.00;97787.28;5045171;28;19975;-62
2022/06/07 02:35:51;;;;;;;;;;;;;;;23.50;100.00;97783.41;5044233;28;19944;-63
2022/06/07 02:38:18;;;;;;;;;;;;;;;23.63;100.00;97782.97;5057263;28;19925;-62
2022/06/07 02:40:46;;;;;;;;;;;;;;;23.42;100.00;97782.44;5041560;28;19949;-62
2022/06/07 02:43:12;;;;;;;;;;;;;;;23.45;100.00;97787.19;5037451;28;19929;-63
2022/06/07 02:45:40;;;;;;;;;;;;;;;23.48;100.00;97786.47;5060778;28;19929;-63
2022/06/07 02:48:07;;;;;;;;;;;;;;;23.38;100.00;97778.78;5041160;28;19929;-62
2022/06/07 02:50:34;;;;;;;;;;;;;;;23.42;100.00;97774.25;5041702;28;19949;-63
2022/06/07 02:53:00;;;;;;;;;;;;;;;23.51;100.00;97790.44;5043673;28;19929;-63
2022/06/07 02:55:26;;;;;;;;;;;;;;;23.37;100.00;97779.13;5044837;28;19925;-63
2022/06/07 02:57:53;;;;;;;;;;;;;;;23.36;100.00;97777.56;5043835;28;19936;-63
2022/06/07 03:00:19;;;;;;;;;;;;;;;23.30;100.00;97774.28;5041020;28;19932;-62
2022/06/07 03:02:48;;;;;;;;;;;;;;;23.28;100.00;97776.56;5041332;28;19932;-62
2022/06/07 03:05:15;;;;;;;;;;;;;;;23.26;100.00;97778.84;5044590;28;19926;-62
2022/06/07 03:07:42;;;;;;;;;;;;;;;23.23;100.00;97779.53;5044413;28;19925;-62
2022/06/07 03:10:09;;;;;;;;;;;;;;;23.24;100.00;97777.63;5041121;28;19925;-62
2022/06/07 03:12:36;;;;;;;;;;;;;;;23.22;100.00;97777.97;5040975;28;19984;-62
2022/06/07 03:15:02;;;;;;;;;;;;;;;23.21;100.00;97787.25;5043375;28;19929;-62
2022/06/07 03:17:29;;;;;;;;;;;;;;;23.27;100.00;97785.09;5044350;28;19933;-62
2022/06/07 03:19:56;;;;;;;;;;;;;;;23.24;100.00;97792.00;5042786;28;19960;-62
2022/06/07 03:22:23;;;;;;;;;;;;;;;23.19;100.00;97789.56;5040805;28;19972;-62
2022/06/07 03:24:49;;;;;;;;;;;;;;;23.16;100.00;97789.44;5041412;28;19926;-62
2022/06/07 03:27:16;;;;;;;;;;;;;;;22.98;100.00;97783.50;5044015;28;20434;-62
2022/06/07 03:29:42;;;;;;;;;;;;;;;22.97;100.00;97793.63;5044253;28;19960;-62
2022/06/07 03:32:09;;;;;;;;;;;;;;;22.97;100.00;97801.00;5041062;28;19949;-62
2022/06/07 03:34:37;;;;;;;;;;;;;;;23.01;100.00;97799.97;5040754;28;19929;-62
2022/06/07 03:37:05;;;;;;;;;;;;;;;23.15;100.00;97798.78;5043236;28;20590;-62
2022/06/07 03:39:31;;;;;;;;;;;;;;;23.15;100.00;97799.53;5042565;28;19988;-62
2022/06/07 03:41:57;;;;;;;;;;;;;;;23.25;100.00;97790.88;5042216;28;19968;-62
2022/06/07 03:44:24;;;;;;;;;;;;;;;23.09;100.00;97796.28;5040659;28;19948;-62
2022/06/07 03:46:52;;;;;;;;;;;;;;;23.18;100.00;97793.41;5041402;28;19937;-62
2022/06/07 03:49:18;;;;;;;;;;;;;;;23.17;100.00;97797.28;5044046;28;19928;-62
2022/06/07 03:51:47;;;;;;;;;;;;;;;23.19;100.00;97789.56;5044166;28;20036;-63
2022/06/07 03:54:15;;;;;;;;;;;;;;;23.11;100.00;97787.78;5040748;28;19960;-63
2022/06/07 03:56:41;;;;;;;;;;;;;;;23.07;100.00;97792.34;5040819;28;19932;-63
2022/06/07 03:59:07;;;;;;;;;;;;;;;22.94;100.00;97793.50;5043943;28;19929;-63
2022/06/07 04:01:34;;;;;;;;;;;;;;;23.06;100.00;97790.72;5043963;28;19926;-63
2022/06/07 04:04:02;;;;;;;;;;;;;;;23.05;100.00;97784.53;5041851;28;19936;-63
2022/06/07 04:06:30;;;;;;;;;;;;;;;23.14;100.00;97792.53;5040511;28;19936;-63
2022/06/07 04:08:57;;;;;;;;;;;;;;;23.13;100.00;97789.00;5042018;28;19922;-63
2022/06/07 04:11:25;;;;;;;;;;;;;;;23.09;100.00;97790.84;5043893;28;19925;-63
2022/06/07 04:13:53;;;;;;;;;;;;;;;23.14;100.00;97792.53;5042719;28;19932;-62
2022/06/07 04:16:20;;;;;;;;;;;;;;;23.14;100.00;97797.97;5040143;28;19932;-62
2022/06/07 04:18:47;;;;;;;;;;;;;;;23.13;100.00;97796.38;5040223;28;19921;-62
2022/06/07 04:21:13;;;;;;;;;;;;;;;23.12;100.00;97794.78;5043460;28;19936;-62
2022/06/07 04:23:40;;;;;;;;;;;;;;;23.03;100.00;97796.88;5043836;28;19931;-63
2022/06/07 04:26:07;;;;;;;;;;;;;;;22.99;100.00;97801.44;5040670;28;19926;-63
2022/06/07 04:28:35;;;;;;;;;;;;;;;22.74;100.00;97797.22;5040090;28;19936;-63
2022/06/07 04:31:02;;;;;;;;;;;;;;;22.92;100.00;97801.25;5042402;28;19925;-63
2022/06/07 04:33:28;;;;;;;;;;;;;;;22.99;100.00;97796.78;5043498;28;19948;-63
2022/06/07 04:35:55;;;;;;;;;;;;;;;22.84;100.00;97797.50;5042388;28;19943;-63
2022/06/07 04:38:21;;;;;;;;;;;;;;;22.91;100.00;97805.09;5040464;28;19925;-63
2022/06/07 04:40:48;;;;;;;;;;;;;;;22.89;100.00;97796.50;5040689;28;19925;-63
2022/06/07 04:43:14;;;;;;;;;;;;;;;22.86;100.00;97805.34;5043334;28;19955;-63
2022/06/07 04:45:42;;;;;;;;;;;;;;;22.98;100.00;97800.66;5043498;28;19925;-62
2022/06/07 04:48:09;;;;;;;;;;;;;;;22.93;100.00;97805.56;5040138;28;19925;-63
2022/06/07 04:50:36;;;;;;;;;;;;;;;22.97;100.00;97803.72;5039514;28;19929;-63
2022/06/07 04:53:02;;;;;;;;;;;;;;;22.68;100.00;97807.56;5042325;28;19929;-63
2022/06/07 04:55:29;;;;;;;;;;;;;;;22.76;100.00;97797.66;5043225;28;19979;-63
2022/06/07 04:57:55;;;;;;;;;;;;;;;22.87;100.00;97810.44;5041718;28;19925;-63
2022/06/07 05:00:22;;;;;;;;;;;;;;;22.78;100.00;97806.25;5055102;28;20471;-63
2022/06/07 05:02:50;;;;;;;;;;;;;;;22.76;100.00;97803.09;5040074;28;19936;-63
2022/06/07 05:05:17;;;;;;;;;;;;;;;22.86;100.00;97813.50;5043052;28;19925;-63
2022/06/07 05:07:44;;;;;;;;;;;;;;;22.94;100.00;97812.56;5042956;28;19928;-63
2022/06/07 05:10:11;;;;;;;;;;;;;;;22.95;100.00;97822.34;5039555;28;19981;-63
2022/06/07 05:12:38;;;;;;;;;;;;;;;22.90;100.00;97806.25;5039304;28;19930;-63
2022/06/07 05:15:05;;;;;;;;;;;;;;;22.80;100.00;97814.91;5041957;28;19957;-63
2022/06/07 05:17:31;;;;;;;;;;;;;;;22.78;100.00;97811.72;5042754;28;20405;-63
2022/06/07 05:19:59;;;;;;;;;;;;;;;22.79;100.00;97810.56;5040836;28;19956;-63
2022/06/07 05:22:27;;;;;;;;;;;;;;;22.81;100.00;97800.16;5039431;28;20000;-63
2022/06/07 05:24:53;;;;;;;;;;;;;;;22.79;100.00;97810.56;5040456;28;19929;-63
2022/06/07 05:27:21;;;;;;;;;;;;;;;22.83;100.00;97809.56;5042589;28;19952;-63
2022/06/07 05:29:49;;;;;;;;;;;;;;;22.93;100.00;97817.22;5042313;28;19925;-63
2022/06/07 05:32:16;;;;;;;;;;;;;;;22.92;100.00;97817.59;5038960;28;19960;-62
2022/06/07 05:34:42;;;;;;;;;;;;;;;22.69;100.00;97819.22;5039057;28;20015;-62
2022/06/07 05:37:13;;;;;;;;;;;;;;;22.73;100.00;97820.91;5041918;28;19928;-62
2022/06/07 05:39:39;;;;;;;;;;;;;;;22.81;100.00;97822.72;5041970;28;19929;-62
2022/06/07 05:42:06;;;;;;;;;;;;;;;22.83;100.00;97812.28;5038983;28;19940;-63
2022/06/07 05:44:33;;;;;;;;;;;;;;;22.85;100.00;97817.38;5038536;28;19929;-63
2022/06/07 05:47:00;;;;;;;;;;;;;;;22.85;100.00;97818.16;5040445;28;19956;-63
2022/06/07 05:49:26;;;;;;;;;;;;;;;22.65;100.00;97819.13;5041969;28;19926;-63
2022/06/07 05:51:53;;;;;;;;;;;;;;;22.58;100.00;97811.53;5040935;28;19959;-63
2022/06/07 05:54:21;;;;;;;;;;;;;;;22.75;100.00;97817.84;5038358;28;19930;-63
2022/06/07 05:56:47;;;;;;;;;;;;;;;22.73;100.00;97820.13;5038708;28;19926;-63
2022/06/07 05:59:13;;;;;;;;;;;;;;;22.73;100.00;97814.69;5041822;28;20026;-63
2022/06/07 06:01:40;;;;;;;;;;;;;;;22.80;100.00;97809.44;5040934;28;20005;-62
2022/06/07 06:04:07;;;;;;;;;;;;;;;22.87;100.00;97818.59;5038476;28;19925;-62
2022/06/07 06:06:34;;;;;;;;;;;;;;;22.91;100.00;97814.06;5038067;28;19929;-62
2022/06/07 06:11:46;;;;;;;;;;;;;;;22.97;100.00;97822.78;5041640;28;19933;-61
2022/06/07 06:14:12;;;;;;;;;;;;;;;22.91;100.00;97818.72;5029688;28;19972;-61
2022/06/07 06:16:39;;;;;;;;;;;;;;;23.01;100.00;97821.75;5037924;28;19964;-62
2022/06/07 06:19:06;;;;;;;;;;;;;;;23.03;100.00;97818.66;5040930;28;19937;-62
2022/06/07 06:21:33;;;;;;;;;;;;;;;23.01;100.00;97807.34;5041559;28;19997;-63
2022/06/07 06:24:00;;;;;;;;;;;;;;;22.81;100.00;97805.59;5039679;28;19925;-62
2022/06/07 06:26:27;;;;;;;;;;;;;;;22.92;100.00;97801.25;5038005;28;19930;-62
2022/06/07 06:28:55;;;;;;;;;;;;;;;22.96;100.00;97810.31;5039432;28;20002;-62
2022/06/07 06:31:22;;;;;;;;;;;;;;;23.01;100.00;97799.97;5041831;28;19967;-62
2022/06/07 06:33:49;;;;;;;;;;;;;;;22.97;100.00;97803.72;5041457;28;19932;-63
2022/06/07 06:36:17;;;;;;;;;;;;;;;22.84;100.00;97807.63;5037391;28;19926;-63
2022/06/07 06:38:44;;;;;;;;;;;;;;;22.90;100.00;97807.03;5038401;28;19953;-63
2022/06/07 06:41:12;;;;;;;;;;;;;;;22.93;100.00;97802.84;5029867;28;19926;-63
2022/06/07 06:43:39;;;;;;;;;;;;;;;23.01;100.00;97804.63;5037146;28;20390;-63
2022/06/07 06:46:07;;;;;;;;;;;;;;;23.03;100.00;97796.88;5038959;28;19976;-63
2022/06/07 06:48:34;;;;;;;;;;;;;;;23.00;100.00;97797.56;5038250;28;20688;-63
2022/06/07 06:51:01;;;;;;;;;;;;;;;23.02;100.00;97800.75;5040221;28;19953;-63
2022/06/07 06:53:27;;;;;;;;;;;;;;;22.90;100.00;97807.03;5041716;28;19925;-63
2022/06/07 06:55:55;;;;;;;;;;;;;;;22.90;100.00;97806.25;5040528;28;19947;-63
2022/06/07 06:58:24;;;;;;;;;;;;;;;22.95;100.00;97809.53;5038069;28;19953;-63
2022/06/07 07:00:59;;;;;;;;;;;;;;;22.99;100.00;97809.63;5038764;28;19952;-63
2022/06/07 07:03:26;;;;;;;;;;;;;;;22.99;100.00;97809.63;5040307;28;19991;-63
2022/06/07 07:05:53;;;;;;;;;;;;;;;23.05;100.00;97811.75;5040459;28;19936;-63
2022/06/07 07:08:19;;;;;;;;;;;;;;;23.03;100.00;97797.66;5037750;28;20310;-63
2022/06/07 07:10:46;;;;;;;;;;;;;;;23.13;100.00;97801.84;5037920;28;19956;-63
2022/06/07 07:13:12;;;;;;;;;;;;;;;22.99;100.00;97790.56;5050261;28;19984;-63
2022/06/07 07:15:38;;;;;;;;;;;;;;;22.93;100.00;97800.88;5045003;28;20352;-63
2022/06/07 07:18:05;;;;;;;;;;;;;;;23.06;100.00;97798.91;5042275;28;19925;-63
2022/06/07 07:20:33;;;;;;;;;;;;;;;23.09;100.00;97795.50;5041431;28;19925;-63
2022/06/07 07:22:59;;;;;;;;;;;;;;;23.10;100.00;97810.69;5043432;28;19949;-63
2022/06/07 07:25:26;;;;;;;;;;;;;;;23.05;100.00;97800.06;5044825;28;19948;-62
2022/06/07 07:27:53;;;;;;;;;;;;;;;23.12;100.00;97811.13;5043798;28;19925;-63
2022/06/07 07:30:20;;;;;;;;;;;;;;;23.12;100.00;97809.22;5041209;28;19926;-62
2022/06/07 07:32:46;;;;;;;;;;;;;;;22.95;100.00;97812.25;5041637;28;19928;-62
2022/06/07 07:35:13;;;;;;;;;;;;;;;22.88;100.00;97809.31;5044892;28;19971;-61
2022/06/07 07:37:42;;;;;;;;;;;;;;;22.81;100.00;97811.03;5044684;28;19932;-62
2022/06/07 07:40:09;;;;;;;;;;;;;;;22.82;100.00;97807.16;5041573;28;19998;-62
2022/06/07 07:42:36;;;;;;;;;;;;;;;23.05;100.00;97810.97;5040923;28;19976;-63
2022/06/07 07:45:02;;;;;;;;;;;;;;;23.23;100.00;97806.00;5043553;28;20030;-62
2022/06/07 07:47:29;;;;;;;;;;;;;;;23.12;100.00;97806.50;5044388;28;19948;-62
2022/06/07 07:49:55;;;;;;;;;;;;;;;22.98;100.00;97810.75;5042992;28;20616;-63
2022/06/07 07:52:23;;;;;;;;;;;;;;;22.82;100.00;97807.16;5040907;28;19925;-62
2022/06/07 07:54:51;;;;;;;;;;;;;;;22.98;100.00;97799.84;5041439;28;19996;-62
2022/06/07 07:57:18;;;;;;;;;;;;;;;23.19;100.00;97811.34;5044008;28;19929;-62
2022/06/07 07:59:44;;;;;;;;;;;;;;;23.25;100.00;97799.06;5043838;28;19925;-62
2022/06/07 08:02:16;;;;;;;;;;;;;;;23.20;100.00;97801.25;5040508;28;19922;-62
2022/06/07 08:04:42;;;;;;;;;;;;;;;22.73;100.00;97803.78;5040621;28;19929;-61
2022/06/07 08:07:09;;;;;;;;;;;;;;;23.01;100.00;97812.78;5043726;28;19929;-62
2022/06/07 08:09:35;;;;;;;;;;;;;;;23.11;100.00;97810.38;5044013;28;19952;-62
2022/06/07 08:12:05;;;;;;;;;;;;;;;22.95;100.00;97819.63;5043700;28;19925;-62
2022/06/07 08:14:32;;;;;;;;;;;;;;;22.95;100.00;97816.88;5045812;28;19936;-63
2022/06/07 08:16:59;;;;;;;;;;;;;;;22.86;100.00;97818.97;5042289;28;19960;-62
2022/06/07 08:19:26;;;;;;;;;;;;;;;22.96;100.00;97813.81;5043841;28;19941;-63
2022/06/07 08:21:52;;;;;;;;;;;;;;;22.89;100.00;97810.09;5041664;28;19927;-63
2022/06/07 08:24:19;;;;;;;;;;;;;;;23.04;100.00;97817.53;5038900;28;19925;-63
2022/06/07 08:26:46;;;;;;;;;;;;;;;22.96;100.00;97818.47;5039737;28;19922;-63
2022/06/07 08:29:13;;;;;;;;;;;;;;;23.21;100.00;97811.00;5040211;28;19926;-63
2022/06/07 08:31:40;;;;;;;;;;;;;;;23.21;100.00;97814.50;5040179;28;19921;-63
2022/06/07 08:39:35;;;;;;;;;;;;;;;22.88;100.00;97817.47;5040090;28;19937;-62
2022/06/07 08:42:03;;;;;;;;;;;;;;;22.98;100.00;97817.00;5040005;28;19925;-62
2022/06/07 08:44:38;;;;;;;;;;;;;;;23.06;100.00;97807.06;5040102;28;19976;-62
2022/06/07 08:47:08;;;;;;;;;;;;;;;22.71;100.00;97819.69;5042637;28;19929;-62
2022/06/07 08:49:34;;;;;;;;;;;;;;;22.79;100.00;97818.75;5043186;28;19933;-63
2022/06/07 08:52:09;;;;;;;;;;;;;;;23.03;100.00;97815.94;5041103;28;19948;-61
2022/06/07 08:54:37;;;;;;;;;;;;;;;22.89;100.00;97807.38;5038722;28;19929;-62
2022/06/07 08:57:11;;;;;;;;;;;;;;;22.90;100.00;97811.69;5042085;28;19953;-62
2022/06/07 08:59:39;;;;;;;;;;;;;;;22.92;100.00;97812.13;5042920;28;19925;-62
2022/06/07 09:02:13;;;;;;;;;;;;;;;23.06;100.00;97816.06;5040132;28;19925;-61
2022/06/07 09:04:40;;;;;;;;;;;;;;;23.12;100.00;97806.50;5039410;28;19937;-62
2022/06/07 09:07:12;;;;;;;;;;;;;;;23.13;100.00;97810.00;5042102;28;19929;-62
2022/06/07 09:12:24;;;;;;;;;;;;;;;22.75;100.00;97805.03;5044249;28;19921;-62
2022/06/07 09:14:53;;;;;;;;;;;;;;;22.49;100.00;97807.34;5043003;28;19929;-62
2022/06/07 09:17:21;;;;;;;;;;;;;;;22.54;100.00;97805.16;5042680;28;20414;-62
2022/06/07 09:19:49;;;;;;;;;;;;;;;22.47;100.00;97813.09;5042432;28;19959;-62
2022/06/07 09:22:17;;;;;;;;;;;;;;;22.34;100.00;97810.75;5039135;28;19926;-62
2022/06/07 09:24:51;;;;;;;;;;;;;;;22.60;100.00;97801.06;5039312;28;19925;-62
2022/06/07 09:27:19;;;;;;;;;;;;;;;22.78;100.00;97806.25;5039036;28;19929;-62
2022/06/07 09:29:50;;;;;;;;;;;;;;;22.52;100.00;97804.72;5039323;28;19957;-62
2022/06/07 09:32:19;;;;;;;;;;;;;;;22.73;100.00;97803.78;5030967;28;19980;-62
2022/06/07 09:34:51;;;;;;;;;;;;;;;22.51;100.00;97797.69;5031066;28;19952;-62
2022/06/07 09:37:22;;;;;;;;;;;;;;;22.75;100.00;97796.84;5030940;28;19933;-62
2022/06/07 09:39:54;;;;;;;;;;;;;;;22.79;100.00;97794.25;5046241;28;19926;-62
2022/06/07 09:42:23;;;;;;;;;;;;;;;23.10;100.00;97797.09;5030791;28;19925;-63
2022/06/07 09:44:55;;;;;;;;;;;;;;;22.86;100.00;97806.16;5039477;28;19926;-62
2022/06/07 09:47:25;;;;;;;;;;;;;;;22.69;100.00;97800.16;5042292;28;19928;-62
2022/06/07 09:49:55;;;;;;;;;;;;;;;23.06;100.00;97794.25;5041624;28;19929;-61
2022/06/07 09:52:24;;;;;;;;;;;;;;;23.01;100.00;97799.16;5038687;28;19965;-62
2022/06/07 09:54:54;;;;;;;;;;;;;;;23.01;100.00;97796.44;5039477;28;20341;-62
2022/06/07 09:57:33;;;;;;;;;;;;;;;23.25;100.00;97787.34;5041912;28;19925;-62
2022/06/07 10:00:17;;;;;;;;;;;;;;;23.15;100.00;97794.09;5040312;28;19952;-62
2022/06/07 10:02:55;;;;;;;;;;;;;;;22.88;100.00;97792.16;5037282;28;19925;-62
2022/06/07 10:05:23;;;;;;;;;;;;;;;22.61;100.00;97790.97;5038581;28;19948;-62
2022/06/07 10:07:54;;;;;;;;;;;;;;;22.80;100.00;97793.13;5039001;28;19921;-62
2022/06/07 10:10:26;;;;;;;;;;;;;;;22.63;100.00;97794.13;5042224;28;19964;-63
2022/06/07 10:13:03;;;;;;;;;;;;;;;22.81;100.00;97795.47;5041966;28;19988;-62
2022/06/07 10:15:33;;;;;;;;;;;;;;;22.92;100.00;97787.63;5041892;28;19925;-62
2022/06/07 10:18:10;;;;;;;;;;;;;;;22.79;100.00;97791.53;5040040;28;19921;-62
2022/06/07 10:20:44;;;;;;;;;;;;;;;22.75;100.00;97796.06;5038484;28;19988;-61
2022/06/07 10:23:27;;;;;;;;;;;;;;;22.77;100.00;97791.09;5041773;28;19932;-63
2022/06/07 10:25:59;;;;;;;;;;;;;;;22.73;100.00;97798.34;5040688;28;19992;-62
2022/06/07 10:28:31;;;;;;;;;;;;;;;22.76;100.00;97786.75;5038299;28;19933;-62
2022/06/07 10:30:59;;;;;;;;;;;;;;;22.65;100.00;97794.63;5039932;28;19921;-62
2022/06/07 10:33:48;;;;;;;;;;;;;;;22.68;100.00;97785.78;5041611;28;19990;-62
2022/06/07 10:36:30;;;;;;;;;;;;;;;22.74;100.00;97784.41;5038407;28;19926;-62
2022/06/07 10:39:02;;;;;;;;;;;;;;;22.76;100.00;97792.22;5039932;28;20001;-62
2022/06/07 10:41:32;;;;;;;;;;;;;;;22.76;100.00;97787.56;5041448;28;19955;-62
2022/06/07 10:44:03;;;;;;;;;;;;;;;22.96;100.00;97786.56;5041532;28;19965;-62
2022/06/07 10:46:30;;;;;;;;;;;;;;;23.11;98.19;97783.13;5041731;28;20012;-63
2022/06/07 10:49:05;;;;;;;;;;;;;;;22.81;89.44;97778.38;5042148;28;19925;-63
2022/06/07 10:54:20;;;;;;;;;;;;;;;22.87;93.72;97785.94;5042056;28;19929;-62
2022/06/07 10:56:52;;;;;;;;;;;;;;;23.17;92.35;97780.94;5041945;28;20421;-62
2022/06/07 10:59:20;;;;;;;;;;;;;;;23.18;91.82;97782.50;5045310;28;19925;-62
2022/06/07 11:01:49;;;;;;;;;;;;;;;23.39;90.38;97774.97;5045274;28;19936;-63
2022/06/07 11:09:49;;;;;;;;;;;;;;;23.21;91.57;97776.38;5045320;28;20344;-62
2022/06/07 11:12:17;;;;;;;;;;;;;;;23.28;90.62;97773.03;5045828;28;19933;-62
2022/06/07 11:14:53;;;;;;;;;;;;;;;23.34;87.97;97783.34;5045102;28;19932;-62
2022/06/07 11:17:25;;;;;;;;;;;;;;;23.05;86.08;97786.44;5041691;28;19932;-62
2022/06/07 11:19:53;;;;;;;;;;;;;;;23.43;82.16;97775.03;5041971;28;19925;-61
2022/06/07 11:22:21;;;;;;;;;;;;;;;23.30;84.62;97777.03;5044772;28;19925;-62
2022/06/07 11:24:55;;;;;;;;;;;;;;;23.11;83.03;97766.78;5044720;28;19925;-62
2022/06/07 11:27:22;;;;;;;;;;;;;;;23.15;84.87;97772.31;5041157;28;19933;-62
2022/06/07 11:29:50;;;;;;;;;;;;;;;23.28;85.53;97782.00;5041850;28;19960;-61
2022/06/07 11:32:31;;;;;;;;;;;;;;;23.54;84.22;97767.94;5044645;28;20628;-62
2022/06/07 11:35:18;;;;;;;;;;;;;;;23.45;83.44;97768.09;5043327;28;19956;-62
2022/06/07 11:37:52;;;;;;;;;;;;;;;23.48;83.98;97763.88;5041264;28;19960;-62
2022/06/07 11:40:27;;;;;;;;;;;;;;;23.58;82.89;97768.81;5041442;28;19956;-62
2022/06/07 11:42:54;;;;;;;;;;;;;;;23.45;85.54;97765.38;5049573;28;19925;-61
2022/06/07 11:45:23;;;;;;;;;;;;;;;23.42;86.17;97770.72;5041241;28;19925;-62
2022/06/07 11:48:05;;;;;;;;;;;;;;;23.47;86.49;97757.63;5041498;28;19925;-62
2022/06/07 11:50:40;;;;;;;;;;;;;;;23.64;84.77;97751.81;5044363;28;20008;-62
2022/06/07 11:53:25;;;;;;;;;;;;;;;23.60;84.51;97758.34;5041674;28;20207;-62
2022/06/07 11:55:56;;;;;;;;;;;;;;;23.54;84.36;97767.94;5041648;28;19948;-62
2022/06/07 11:58:38;;;;;;;;;;;;;;;23.56;82.83;97766.44;5044222;28;19926;-63
2022/06/07 12:01:23;;;;;;;;;;;;;;;23.58;82.07;97764.13;5041168;28;19925;-62
2022/06/07 12:04:06;;;;;;;;;;;;;;;23.82;79.47;97762.41;5041301;28;19953;-62
2022/06/07 12:06:34;;;;;;;;;;;;;;;23.82;79.72;97749.56;5044167;28;19929;-63
2022/06/07 12:09:04;;;;;;;;;;;;;;;23.85;74.19;97745.31;5041997;28;20512;-62
2022/06/07 12:11:34;;;;;;;;;;;;;;;23.72;77.51;97743.84;5040538;28;19976;-63
2022/06/07 12:14:15;;;;;;;;;;;;;;;23.58;74.35;97742.31;5042663;28;19981;-62
2022/06/07 12:16:43;;;;;;;;;;;;;;;23.57;75.49;97743.50;5041813;28;19976;-61
2022/06/07 12:19:18;;;;;;;;;;;;;;;23.61;71.58;97733.44;5041077;28;19993;-61
2022/06/07 12:21:52;;;;;;;;;;;;;;;23.42;70.02;97741.56;5040748;28;20402;-62
2022/06/07 12:24:18;;;;;;;;;;;;;;;23.37;74.99;97728.13;5040510;28;19948;-62
2022/06/07 12:26:47;;;;;;;;;;;;;;;23.52;76.95;97735.56;5040535;28;19933;-63
2022/06/07 12:29:18;;;;;;;;;;;;;;;23.55;79.13;97723.94;5040478;28;19940;-61
2022/06/07 12:31:47;;;;;;;;;;;;;;;23.60;69.50;97726.44;5040420;28;19929;-62
2022/06/07 12:34:16;;;;;;;;;;;;;;;23.52;73.59;97715.72;5040531;28;19989;-62
2022/06/07 12:36:44;;;;;;;;;;;;;;;23.57;77.76;97712.72;5040203;28;19981;-62
2022/06/07 12:39:13;;;;;;;;;;;;;;;23.61;75.32;97708.91;5043616;28;19925;-62
2022/06/07 12:41:45;;;;;;;;;;;;;;;23.81;75.97;97712.50;5044031;28;19977;-62
2022/06/07 12:44:20;;;;;;;;;;;;;;;23.64;78.04;97702.75;5044158;28;19925;-62
2022/06/07 12:46:46;;;;;;;;;;;;;;;23.94;74.67;97711.28;5044093;28;20326;-62
2022/06/07 12:49:19;;;;;;;;;;;;;;;23.99;72.98;97711.00;5040589;28;19925;-62
2022/06/07 12:51:53;;;;;;;;;;;;;;;23.96;74.89;97708.97;5040600;28;19932;-63
2022/06/07 12:54:22;;;;;;;;;;;;;;;23.91;68.63;97705.72;5032099;28;19949;-62
2022/06/07 12:56:50;;;;;;;;;;;;;;;23.67;73.85;97699.31;5032084;28;19925;-62
2022/06/07 12:59:20;;;;;;;;;;;;;;;23.79;73.26;97700.38;5032240;28;19929;-63
2022/06/07 13:01:47;;;;;;;;;;;;;;;23.74;75.60;97706.88;5032056;28;19933;-62
2022/06/07 13:04:16;;;;;;;;;;;;;;;23.73;73.99;97693.63;5032226;28;19948;-63
2022/06/07 13:06:57;;;;;;;;;;;;;;;23.88;67.52;97700.97;5031962;28;19926;-62
2022/06/07 13:09:25;;;;;;;;;;;;;;;23.88;71.79;97709.16;5040129;28;19929;-62
2022/06/07 13:11:51;;;;;;;;;;;;;;;23.91;71.83;97703.00;5040485;28;19925;-62